sensor_id;sensor_type;location;lat;lon;timestamp;P1;durP1;ratioP1;P2;durP2;ratioP2
33162;SDS011;29282;45.656;11.302;2023-11-21T00:01:16;6.53;;;5.13;;
33162;SDS011;29282;45.656;11.302;2023-11-21T00:03:42;6.97;;;5.63;;
33162;SDS011;29282;45.656;11.302;2023-11-21T00:06:08;8.30;;;5.70;;
33162;SDS011;29282;45.656;11.302;2023-11-21T00:08:36;8.13;;;5.53;;
33162;SDS011;29282;45.656;11.302;2023-11-21T00:11:02;7.70;;;5.82;;
33162;SDS011;29282;45.656;11.302;2023-11-21T00:13:30;7.88;;;5.53;;
33162;SDS011;29282;45.656;11.302;2023-11-21T00:15:56;7.75;;;5.72;;
33162;SDS011;29282;45.656;11.302;2023-11-21T00:18:22;6.28;;;5.50;;
33162;SDS011;29282;45.656;11.302;2023-11-21T00:20:47;6.15;;;5.25;;
33162;SDS011;29282;45.656;11.302;2023-11-21T00:23:13;6.60;;;5.55;;
33162;SDS011;29282;45.656;11.302;2023-11-21T00:25:38;8.27;;;5.50;;
33162;SDS011;29282;45.656;11.302;2023-11-21T00:28:05;8.25;;;5.50;;
33162;SDS011;29282;45.656;11.302;2023-11-21T00:30:31;8.07;;;5.65;;
33162;SDS011;29282;45.656;11.302;2023-11-21T00:32:57;6.90;;;5.15;;
33162;SDS011;29282;45.656;11.302;2023-11-21T00:35:22;7.00;;;5.28;;
33162;SDS011;29282;45.656;11.302;2023-11-21T00:37:48;7.43;;;5.35;;
33162;SDS011;29282;45.656;11.302;2023-11-21T00:40:15;6.55;;;5.18;;
33162;SDS011;29282;45.656;11.302;2023-11-21T00:42:41;6.40;;;5.28;;
33162;SDS011;29282;45.656;11.302;2023-11-21T00:45:07;7.07;;;5.50;;
33162;SDS011;29282;45.656;11.302;2023-11-21T00:47:33;6.25;;;5.18;;
33162;SDS011;29282;45.656;11.302;2023-11-21T00:49:58;7.22;;;5.50;;
33162;SDS011;29282;45.656;11.302;2023-11-21T00:52:24;7.88;;;5.53;;
33162;SDS011;29282;45.656;11.302;2023-11-21T00:54:50;6.50;;;5.30;;
33162;SDS011;29282;45.656;11.302;2023-11-21T00:57:15;6.47;;;5.20;;
33162;SDS011;29282;45.656;11.302;2023-11-21T00:59:41;7.72;;;5.25;;
33162;SDS011;29282;45.656;11.302;2023-11-21T01:02:06;7.60;;;5.88;;
33162;SDS011;29282;45.656;11.302;2023-11-21T01:04:35;5.07;;;4.53;;
33162;SDS011;29282;45.656;11.302;2023-11-21T01:07:00;6.60;;;5.10;;
33162;SDS011;29282;45.656;11.302;2023-11-21T01:09:26;5.93;;;4.88;;
33162;SDS011;29282;45.656;11.302;2023-11-21T01:11:53;6.78;;;5.18;;
33162;SDS011;29282;45.656;11.302;2023-11-21T01:14:18;6.53;;;5.15;;
33162;SDS011;29282;45.656;11.302;2023-11-21T01:16:47;6.57;;;5.05;;
33162;SDS011;29282;45.656;11.302;2023-11-21T01:19:13;6.72;;;5.30;;
33162;SDS011;29282;45.656;11.302;2023-11-21T01:21:39;5.93;;;4.93;;
33162;SDS011;29282;45.656;11.302;2023-11-21T01:24:05;6.72;;;5.53;;
33162;SDS011;29282;45.656;11.302;2023-11-21T01:26:32;6.93;;;5.30;;
33162;SDS011;29282;45.656;11.302;2023-11-21T01:28:58;6.45;;;5.03;;
33162;SDS011;29282;45.656;11.302;2023-11-21T01:31:24;7.43;;;5.07;;
33162;SDS011;29282;45.656;11.302;2023-11-21T01:33:52;7.05;;;5.03;;
33162;SDS011;29282;45.656;11.302;2023-11-21T01:36:18;6.63;;;5.32;;
33162;SDS011;29282;45.656;11.302;2023-11-21T01:38:43;5.30;;;4.60;;
33162;SDS011;29282;45.656;11.302;2023-11-21T01:41:09;5.95;;;4.53;;
33162;SDS011;29282;45.656;11.302;2023-11-21T01:43:36;6.47;;;4.88;;
33162;SDS011;29282;45.656;11.302;2023-11-21T01:46:02;6.05;;;4.78;;
33162;SDS011;29282;45.656;11.302;2023-11-21T01:48:28;7.00;;;4.75;;
33162;SDS011;29282;45.656;11.302;2023-11-21T01:50:54;5.65;;;4.60;;
33162;SDS011;29282;45.656;11.302;2023-11-21T01:53:20;6.90;;;4.95;;
33162;SDS011;29282;45.656;11.302;2023-11-21T01:55:45;7.28;;;5.22;;
33162;SDS011;29282;45.656;11.302;2023-11-21T01:58:11;5.20;;;4.68;;
33162;SDS011;29282;45.656;11.302;2023-11-21T02:00:37;6.82;;;4.90;;
33162;SDS011;29282;45.656;11.302;2023-11-21T02:03:03;11.85;;;5.10;;
33162;SDS011;29282;45.656;11.302;2023-11-21T02:05:29;5.03;;;4.15;;
33162;SDS011;29282;45.656;11.302;2023-11-21T02:07:54;6.95;;;4.88;;
33162;SDS011;29282;45.656;11.302;2023-11-21T02:10:21;6.63;;;4.85;;
33162;SDS011;29282;45.656;11.302;2023-11-21T02:12:51;6.03;;;4.93;;
33162;SDS011;29282;45.656;11.302;2023-11-21T02:15:17;6.40;;;4.70;;
33162;SDS011;29282;45.656;11.302;2023-11-21T02:17:46;5.70;;;4.50;;
33162;SDS011;29282;45.656;11.302;2023-11-21T02:20:16;5.32;;;4.53;;
33162;SDS011;29282;45.656;11.302;2023-11-21T02:23:04;5.63;;;4.35;;
33162;SDS011;29282;45.656;11.302;2023-11-21T02:25:30;7.68;;;4.78;;
33162;SDS011;29282;45.656;11.302;2023-11-21T02:27:57;6.20;;;4.50;;
33162;SDS011;29282;45.656;11.302;2023-11-21T02:30:25;5.63;;;4.68;;
33162;SDS011;29282;45.656;11.302;2023-11-21T02:32:51;5.53;;;4.50;;
33162;SDS011;29282;45.656;11.302;2023-11-21T02:35:20;5.03;;;4.43;;
33162;SDS011;29282;45.656;11.302;2023-11-21T02:37:49;5.63;;;4.25;;
33162;SDS011;29282;45.656;11.302;2023-11-21T02:40:15;5.38;;;4.63;;
33162;SDS011;29282;45.656;11.302;2023-11-21T02:42:45;6.15;;;4.57;;
33162;SDS011;29282;45.656;11.302;2023-11-21T02:45:16;7.15;;;5.05;;
33162;SDS011;29282;45.656;11.302;2023-11-21T02:47:43;5.13;;;4.63;;
33162;SDS011;29282;45.656;11.302;2023-11-21T02:50:09;5.95;;;4.63;;
33162;SDS011;29282;45.656;11.302;2023-11-21T02:52:35;4.78;;;4.10;;
33162;SDS011;29282;45.656;11.302;2023-11-21T02:55:01;5.85;;;4.60;;
33162;SDS011;29282;45.656;11.302;2023-11-21T02:57:27;4.85;;;4.35;;
33162;SDS011;29282;45.656;11.302;2023-11-21T02:59:53;5.68;;;4.47;;
33162;SDS011;29282;45.656;11.302;2023-11-21T03:02:19;6.57;;;4.65;;
33162;SDS011;29282;45.656;11.302;2023-11-21T03:04:45;5.00;;;4.28;;
33162;SDS011;29282;45.656;11.302;2023-11-21T03:07:11;4.93;;;4.43;;
33162;SDS011;29282;45.656;11.302;2023-11-21T03:09:36;5.78;;;4.28;;
33162;SDS011;29282;45.656;11.302;2023-11-21T03:12:02;6.13;;;4.40;;
33162;SDS011;29282;45.656;11.302;2023-11-21T03:14:27;4.78;;;3.88;;
33162;SDS011;29282;45.656;11.302;2023-11-21T03:16:53;4.88;;;4.13;;
33162;SDS011;29282;45.656;11.302;2023-11-21T03:19:18;5.22;;;4.63;;
33162;SDS011;29282;45.656;11.302;2023-11-21T03:21:44;4.35;;;3.85;;
33162;SDS011;29282;45.656;11.302;2023-11-21T03:24:09;4.82;;;3.90;;
33162;SDS011;29282;45.656;11.302;2023-11-21T03:26:35;6.72;;;4.10;;
33162;SDS011;29282;45.656;11.302;2023-11-21T03:29:02;5.18;;;3.75;;
33162;SDS011;29282;45.656;11.302;2023-11-21T03:31:28;4.75;;;3.90;;
33162;SDS011;29282;45.656;11.302;2023-11-21T03:33:53;4.53;;;3.65;;
33162;SDS011;29282;45.656;11.302;2023-11-21T03:36:19;5.65;;;4.55;;
33162;SDS011;29282;45.656;11.302;2023-11-21T03:38:45;5.68;;;4.05;;
33162;SDS011;29282;45.656;11.302;2023-11-21T03:41:10;5.28;;;3.95;;
33162;SDS011;29282;45.656;11.302;2023-11-21T03:43:36;4.55;;;3.80;;
33162;SDS011;29282;45.656;11.302;2023-11-21T03:46:02;7.18;;;4.20;;
33162;SDS011;29282;45.656;11.302;2023-11-21T03:48:28;5.35;;;4.05;;
33162;SDS011;29282;45.656;11.302;2023-11-21T03:50:53;4.47;;;3.80;;
33162;SDS011;29282;45.656;11.302;2023-11-21T03:53:19;4.68;;;3.92;;
33162;SDS011;29282;45.656;11.302;2023-11-21T03:55:44;5.32;;;4.13;;
33162;SDS011;29282;45.656;11.302;2023-11-21T03:58:10;4.88;;;4.13;;
33162;SDS011;29282;45.656;11.302;2023-11-21T04:00:36;4.57;;;4.07;;
33162;SDS011;29282;45.656;11.302;2023-11-21T04:03:01;4.90;;;3.88;;
33162;SDS011;29282;45.656;11.302;2023-11-21T04:05:27;4.78;;;4.13;;
33162;SDS011;29282;45.656;11.302;2023-11-21T04:07:53;5.78;;;4.15;;
33162;SDS011;29282;45.656;11.302;2023-11-21T04:10:18;4.90;;;4.30;;
33162;SDS011;29282;45.656;11.302;2023-11-21T04:12:44;4.65;;;3.72;;
33162;SDS011;29282;45.656;11.302;2023-11-21T04:15:10;5.03;;;4.25;;
33162;SDS011;29282;45.656;11.302;2023-11-21T04:17:38;4.63;;;3.88;;
33162;SDS011;29282;45.656;11.302;2023-11-21T04:20:04;4.38;;;3.92;;
33162;SDS011;29282;45.656;11.302;2023-11-21T04:22:41;5.05;;;3.72;;
33162;SDS011;29282;45.656;11.302;2023-11-21T04:25:13;5.13;;;3.80;;
33162;SDS011;29282;45.656;11.302;2023-11-21T04:27:40;3.95;;;3.55;;
33162;SDS011;29282;45.656;11.302;2023-11-21T04:30:09;4.50;;;3.90;;
33162;SDS011;29282;45.656;11.302;2023-11-21T04:32:35;5.30;;;4.00;;
33162;SDS011;29282;45.656;11.302;2023-11-21T04:35:01;4.57;;;4.07;;
33162;SDS011;29282;45.656;11.302;2023-11-21T04:37:27;5.05;;;3.65;;
33162;SDS011;29282;45.656;11.302;2023-11-21T04:39:52;3.80;;;3.35;;
33162;SDS011;29282;45.656;11.302;2023-11-21T04:42:18;4.20;;;3.80;;
33162;SDS011;29282;45.656;11.302;2023-11-21T04:44:43;5.13;;;3.55;;
33162;SDS011;29282;45.656;11.302;2023-11-21T04:47:09;4.18;;;3.63;;
33162;SDS011;29282;45.656;11.302;2023-11-21T04:49:35;4.28;;;3.83;;
33162;SDS011;29282;45.656;11.302;2023-11-21T04:52:00;3.97;;;3.58;;
33162;SDS011;29282;45.656;11.302;2023-11-21T04:54:26;4.38;;;3.60;;
33162;SDS011;29282;45.656;11.302;2023-11-21T04:56:52;4.60;;;4.00;;
33162;SDS011;29282;45.656;11.302;2023-11-21T04:59:18;4.45;;;3.80;;
33162;SDS011;29282;45.656;11.302;2023-11-21T05:01:43;5.40;;;3.95;;
33162;SDS011;29282;45.656;11.302;2023-11-21T05:04:09;4.90;;;3.45;;
33162;SDS011;29282;45.656;11.302;2023-11-21T05:06:34;4.97;;;3.72;;
33162;SDS011;29282;45.656;11.302;2023-11-21T05:09:00;3.85;;;3.38;;
33162;SDS011;29282;45.656;11.302;2023-11-21T05:11:26;5.00;;;4.10;;
33162;SDS011;29282;45.656;11.302;2023-11-21T05:13:52;5.13;;;3.30;;
33162;SDS011;29282;45.656;11.302;2023-11-21T05:16:21;5.13;;;3.50;;
33162;SDS011;29282;45.656;11.302;2023-11-21T05:18:47;4.75;;;3.78;;
33162;SDS011;29282;45.656;11.302;2023-11-21T05:21:18;3.70;;;3.35;;
33162;SDS011;29282;45.656;11.302;2023-11-21T05:23:46;5.07;;;3.72;;
33162;SDS011;29282;45.656;11.302;2023-11-21T05:26:11;4.80;;;3.80;;
33162;SDS011;29282;45.656;11.302;2023-11-21T05:28:37;4.20;;;3.47;;
33162;SDS011;29282;45.656;11.302;2023-11-21T05:31:02;4.75;;;3.60;;
33162;SDS011;29282;45.656;11.302;2023-11-21T05:33:31;5.20;;;4.03;;
33162;SDS011;29282;45.656;11.302;2023-11-21T05:35:58;5.85;;;3.63;;
33162;SDS011;29282;45.656;11.302;2023-11-21T05:38:23;4.72;;;3.85;;
33162;SDS011;29282;45.656;11.302;2023-11-21T05:40:49;3.92;;;3.40;;
33162;SDS011;29282;45.656;11.302;2023-11-21T05:43:15;4.22;;;3.45;;
33162;SDS011;29282;45.656;11.302;2023-11-21T05:45:40;4.80;;;3.30;;
33162;SDS011;29282;45.656;11.302;2023-11-21T05:48:06;5.28;;;3.42;;
33162;SDS011;29282;45.656;11.302;2023-11-21T05:50:31;4.53;;;3.55;;
33162;SDS011;29282;45.656;11.302;2023-11-21T05:52:57;5.45;;;3.67;;
33162;SDS011;29282;45.656;11.302;2023-11-21T05:55:25;4.32;;;3.53;;
33162;SDS011;29282;45.656;11.302;2023-11-21T05:57:50;4.68;;;3.47;;
33162;SDS011;29282;45.656;11.302;2023-11-21T06:00:16;5.60;;;3.70;;
33162;SDS011;29282;45.656;11.302;2023-11-21T06:02:51;4.28;;;3.75;;
33162;SDS011;29282;45.656;11.302;2023-11-21T06:05:18;3.90;;;3.10;;
33162;SDS011;29282;45.656;11.302;2023-11-21T06:07:45;4.57;;;3.63;;
33162;SDS011;29282;45.656;11.302;2023-11-21T06:10:11;6.00;;;3.83;;
33162;SDS011;29282;45.656;11.302;2023-11-21T06:12:40;4.82;;;3.15;;
33162;SDS011;29282;45.656;11.302;2023-11-21T06:15:08;5.20;;;3.47;;
33162;SDS011;29282;45.656;11.302;2023-11-21T06:17:34;3.33;;;3.00;;
33162;SDS011;29282;45.656;11.302;2023-11-21T06:20:04;4.60;;;3.35;;
33162;SDS011;29282;45.656;11.302;2023-11-21T06:22:34;5.93;;;3.50;;
33162;SDS011;29282;45.656;11.302;2023-11-21T06:25:04;4.75;;;2.80;;
33162;SDS011;29282;45.656;11.302;2023-11-21T06:27:49;6.20;;;3.58;;
33162;SDS011;29282;45.656;11.302;2023-11-21T06:30:16;4.03;;;3.20;;
33162;SDS011;29282;45.656;11.302;2023-11-21T06:32:45;4.10;;;3.28;;
33162;SDS011;29282;45.656;11.302;2023-11-21T06:35:11;3.53;;;3.22;;
33162;SDS011;29282;45.656;11.302;2023-11-21T06:37:37;5.70;;;3.55;;
33162;SDS011;29282;45.656;11.302;2023-11-21T06:40:03;4.22;;;3.50;;
33162;SDS011;29282;45.656;11.302;2023-11-21T06:42:29;4.68;;;3.08;;
33162;SDS011;29282;45.656;11.302;2023-11-21T06:44:55;5.85;;;3.47;;
33162;SDS011;29282;45.656;11.302;2023-11-21T06:47:24;4.93;;;3.55;;
33162;SDS011;29282;45.656;11.302;2023-11-21T06:49:50;4.18;;;2.92;;
33162;SDS011;29282;45.656;11.302;2023-11-21T06:52:17;4.78;;;3.50;;
33162;SDS011;29282;45.656;11.302;2023-11-21T06:54:44;3.83;;;3.17;;
33162;SDS011;29282;45.656;11.302;2023-11-21T06:57:10;3.55;;;3.03;;
33162;SDS011;29282;45.656;11.302;2023-11-21T06:59:36;6.85;;;3.38;;
33162;SDS011;29282;45.656;11.302;2023-11-21T07:02:02;5.45;;;3.60;;
33162;SDS011;29282;45.656;11.302;2023-11-21T07:04:29;4.45;;;3.63;;
33162;SDS011;29282;45.656;11.302;2023-11-21T07:06:55;6.30;;;3.38;;
33162;SDS011;29282;45.656;11.302;2023-11-21T07:09:21;4.05;;;3.30;;
33162;SDS011;29282;45.656;11.302;2023-11-21T07:11:50;4.97;;;3.70;;
33162;SDS011;29282;45.656;11.302;2023-11-21T07:14:15;5.22;;;3.33;;
33162;SDS011;29282;45.656;11.302;2023-11-21T07:16:42;6.68;;;3.90;;
33162;SDS011;29282;45.656;11.302;2023-11-21T07:19:08;5.85;;;3.60;;
33162;SDS011;29282;45.656;11.302;2023-11-21T07:21:33;6.90;;;3.60;;
33162;SDS011;29282;45.656;11.302;2023-11-21T07:24:01;5.03;;;3.33;;
33162;SDS011;29282;45.656;11.302;2023-11-21T07:26:31;5.13;;;3.10;;
33162;SDS011;29282;45.656;11.302;2023-11-21T07:28:57;5.97;;;3.90;;
33162;SDS011;29282;45.656;11.302;2023-11-21T07:31:22;5.38;;;3.40;;
33162;SDS011;29282;45.656;11.302;2023-11-21T07:33:49;5.43;;;3.50;;
33162;SDS011;29282;45.656;11.302;2023-11-21T07:36:15;5.57;;;3.78;;
33162;SDS011;29282;45.656;11.302;2023-11-21T07:38:43;3.83;;;3.25;;
33162;SDS011;29282;45.656;11.302;2023-11-21T07:41:10;4.68;;;3.35;;
33162;SDS011;29282;45.656;11.302;2023-11-21T07:43:36;8.63;;;4.30;;
33162;SDS011;29282;45.656;11.302;2023-11-21T07:46:02;12.90;;;4.60;;
33162;SDS011;29282;45.656;11.302;2023-11-21T07:48:31;17.08;;;5.15;;
33162;SDS011;29282;45.656;11.302;2023-11-21T07:50:57;13.38;;;6.40;;
33162;SDS011;29282;45.656;11.302;2023-11-21T07:53:27;23.55;;;8.95;;
33162;SDS011;29282;45.656;11.302;2023-11-21T07:55:55;25.33;;;8.50;;
33162;SDS011;29282;45.656;11.302;2023-11-21T07:58:21;22.85;;;8.13;;
33162;SDS011;29282;45.656;11.302;2023-11-21T08:00:47;25.35;;;8.95;;
33162;SDS011;29282;45.656;11.302;2023-11-21T08:03:14;18.73;;;8.00;;
33162;SDS011;29282;45.656;11.302;2023-11-21T08:05:39;20.98;;;8.82;;
33162;SDS011;29282;45.656;11.302;2023-11-21T08:08:05;21.90;;;8.85;;
33162;SDS011;29282;45.656;11.302;2023-11-21T08:10:31;22.80;;;9.18;;
33162;SDS011;29282;45.656;11.302;2023-11-21T08:12:56;21.05;;;8.40;;
33162;SDS011;29282;45.656;11.302;2023-11-21T08:15:22;25.52;;;8.82;;
33162;SDS011;29282;45.656;11.302;2023-11-21T08:17:47;23.77;;;8.18;;
33162;SDS011;29282;45.656;11.302;2023-11-21T08:20:13;24.23;;;9.57;;
33162;SDS011;29282;45.656;11.302;2023-11-21T08:22:44;22.20;;;8.02;;
33162;SDS011;29282;45.656;11.302;2023-11-21T08:25:10;20.73;;;8.82;;
33162;SDS011;29282;45.656;11.302;2023-11-21T08:27:36;21.05;;;8.77;;
33162;SDS011;29282;45.656;11.302;2023-11-21T08:30:04;22.77;;;8.50;;
33162;SDS011;29282;45.656;11.302;2023-11-21T08:32:30;20.52;;;8.50;;
33162;SDS011;29282;45.656;11.302;2023-11-21T08:34:58;22.20;;;8.48;;
33162;SDS011;29282;45.656;11.302;2023-11-21T08:37:24;21.77;;;8.70;;
33162;SDS011;29282;45.656;11.302;2023-11-21T08:39:52;19.98;;;7.97;;
33162;SDS011;29282;45.656;11.302;2023-11-21T08:42:18;21.05;;;8.23;;
33162;SDS011;29282;45.656;11.302;2023-11-21T08:44:44;17.38;;;8.23;;
33162;SDS011;29282;45.656;11.302;2023-11-21T08:47:09;19.15;;;8.20;;
33162;SDS011;29282;45.656;11.302;2023-11-21T08:49:35;16.30;;;7.75;;
33162;SDS011;29282;45.656;11.302;2023-11-21T08:52:00;18.42;;;8.20;;
33162;SDS011;29282;45.656;11.302;2023-11-21T08:54:26;20.30;;;7.93;;
33162;SDS011;29282;45.656;11.302;2023-11-21T08:56:52;18.80;;;8.38;;
33162;SDS011;29282;45.656;11.302;2023-11-21T08:59:18;22.23;;;8.13;;
33162;SDS011;29282;45.656;11.302;2023-11-21T09:01:45;17.50;;;7.35;;
33162;SDS011;29282;45.656;11.302;2023-11-21T09:04:11;16.48;;;7.97;;
33162;SDS011;29282;45.656;11.302;2023-11-21T09:06:37;17.23;;;7.80;;
33162;SDS011;29282;45.656;11.302;2023-11-21T09:09:04;12.32;;;7.35;;
33162;SDS011;29282;45.656;11.302;2023-11-21T09:11:31;17.13;;;7.57;;
33162;SDS011;29282;45.656;11.302;2023-11-21T09:14:00;17.40;;;8.38;;
33162;SDS011;29282;45.656;11.302;2023-11-21T09:16:26;18.35;;;7.75;;
33162;SDS011;29282;45.656;11.302;2023-11-21T09:18:51;17.08;;;7.20;;
33162;SDS011;29282;45.656;11.302;2023-11-21T09:21:17;16.50;;;7.65;;
33162;SDS011;29282;45.656;11.302;2023-11-21T09:23:46;19.58;;;8.07;;
33162;SDS011;29282;45.656;11.302;2023-11-21T09:26:12;20.88;;;7.50;;
33162;SDS011;29282;45.656;11.302;2023-11-21T09:28:37;13.88;;;7.32;;
33162;SDS011;29282;45.656;11.302;2023-11-21T09:31:06;15.85;;;8.20;;
33162;SDS011;29282;45.656;11.302;2023-11-21T09:33:34;16.73;;;7.88;;
33162;SDS011;29282;45.656;11.302;2023-11-21T09:35:59;14.35;;;6.88;;
33162;SDS011;29282;45.656;11.302;2023-11-21T09:38:25;18.45;;;8.18;;
33162;SDS011;29282;45.656;11.302;2023-11-21T09:40:50;13.73;;;6.40;;
33162;SDS011;29282;45.656;11.302;2023-11-21T09:43:18;13.93;;;7.07;;
33162;SDS011;29282;45.656;11.302;2023-11-21T09:45:47;18.10;;;7.63;;
33162;SDS011;29282;45.656;11.302;2023-11-21T09:48:19;15.13;;;7.03;;
33162;SDS011;29282;45.656;11.302;2023-11-21T09:50:49;13.40;;;6.97;;
33162;SDS011;29282;45.656;11.302;2023-11-21T09:53:19;17.55;;;7.00;;
33162;SDS011;29282;45.656;11.302;2023-11-21T09:55:47;15.05;;;6.60;;
33162;SDS011;29282;45.656;11.302;2023-11-21T09:58:18;14.20;;;6.93;;
33162;SDS011;29282;45.656;11.302;2023-11-21T10:00:45;16.13;;;7.03;;
33162;SDS011;29282;45.656;11.302;2023-11-21T10:03:12;13.45;;;7.03;;
33162;SDS011;29282;45.656;11.302;2023-11-21T10:05:38;11.00;;;6.07;;
33162;SDS011;29282;45.656;11.302;2023-11-21T10:08:08;14.15;;;7.10;;
33162;SDS011;29282;45.656;11.302;2023-11-21T10:10:35;13.38;;;6.75;;
33162;SDS011;29282;45.656;11.302;2023-11-21T10:13:03;11.15;;;6.55;;
33162;SDS011;29282;45.656;11.302;2023-11-21T10:15:35;13.00;;;6.20;;
33162;SDS011;29282;45.656;11.302;2023-11-21T10:18:02;14.18;;;6.88;;
33162;SDS011;29282;45.656;11.302;2023-11-21T10:20:29;14.55;;;6.43;;
33162;SDS011;29282;45.656;11.302;2023-11-21T10:22:56;18.73;;;6.90;;
33162;SDS011;29282;45.656;11.302;2023-11-21T10:25:22;18.90;;;7.20;;
33162;SDS011;29282;45.656;11.302;2023-11-21T10:27:48;10.85;;;5.97;;
33162;SDS011;29282;45.656;11.302;2023-11-21T10:30:17;13.38;;;6.93;;
33162;SDS011;29282;45.656;11.302;2023-11-21T10:32:43;16.20;;;6.32;;
33162;SDS011;29282;45.656;11.302;2023-11-21T10:35:09;15.52;;;6.90;;
33162;SDS011;29282;45.656;11.302;2023-11-21T10:37:36;14.32;;;6.43;;
33162;SDS011;29282;45.656;11.302;2023-11-21T10:40:05;12.48;;;6.47;;
33162;SDS011;29282;45.656;11.302;2023-11-21T10:42:37;9.57;;;5.88;;
33162;SDS011;29282;45.656;11.302;2023-11-21T10:45:03;14.48;;;6.15;;
33162;SDS011;29282;45.656;11.302;2023-11-21T10:47:35;12.85;;;6.07;;
33162;SDS011;29282;45.656;11.302;2023-11-21T10:50:01;11.38;;;6.72;;
33162;SDS011;29282;45.656;11.302;2023-11-21T10:52:27;11.00;;;4.97;;
33162;SDS011;29282;45.656;11.302;2023-11-21T10:54:52;15.57;;;6.10;;
33162;SDS011;29282;45.656;11.302;2023-11-21T10:57:18;10.02;;;5.60;;
33162;SDS011;29282;45.656;11.302;2023-11-21T10:59:47;11.93;;;5.50;;
33162;SDS011;29282;45.656;11.302;2023-11-21T11:02:23;12.43;;;5.78;;
33162;SDS011;29282;45.656;11.302;2023-11-21T11:04:56;11.82;;;5.20;;
33162;SDS011;29282;45.656;11.302;2023-11-21T11:07:27;9.68;;;5.10;;
33162;SDS011;29282;45.656;11.302;2023-11-21T11:09:53;11.55;;;5.13;;
33162;SDS011;29282;45.656;11.302;2023-11-21T11:12:20;8.45;;;4.97;;
33162;SDS011;29282;45.656;11.302;2023-11-21T11:14:45;10.65;;;5.45;;
33162;SDS011;29282;45.656;11.302;2023-11-21T11:17:13;10.35;;;4.85;;
33162;SDS011;29282;45.656;11.302;2023-11-21T11:19:38;11.80;;;4.68;;
33162;SDS011;29282;45.656;11.302;2023-11-21T11:38:33;9.63;;;4.45;;
33162;SDS011;29282;45.656;11.302;2023-11-21T11:41:04;10.40;;;5.18;;
33162;SDS011;29282;45.656;11.302;2023-11-21T11:43:30;10.95;;;4.40;;
33162;SDS011;29282;45.656;11.302;2023-11-21T11:46:09;9.32;;;4.82;;
33162;SDS011;29282;45.656;11.302;2023-11-21T11:48:38;9.60;;;4.70;;
33162;SDS011;29282;45.656;11.302;2023-11-21T11:51:14;8.00;;;4.38;;
33162;SDS011;29282;45.656;11.302;2023-11-21T11:53:42;10.50;;;4.65;;
33162;SDS011;29282;45.656;11.302;2023-11-21T11:59:03;9.30;;;4.75;;
33162;SDS011;29282;45.656;11.302;2023-11-21T12:01:31;11.18;;;4.47;;
33162;SDS011;29282;45.656;11.302;2023-11-21T12:06:42;6.97;;;4.00;;
33162;SDS011;29282;45.656;11.302;2023-11-21T12:09:17;7.85;;;4.70;;
33162;SDS011;29282;45.656;11.302;2023-11-21T12:11:43;9.05;;;4.28;;
33162;SDS011;29282;45.656;11.302;2023-11-21T12:14:09;9.07;;;4.40;;
33162;SDS011;29282;45.656;11.302;2023-11-21T12:16:35;11.43;;;4.68;;
33162;SDS011;29282;45.656;11.302;2023-11-21T12:19:00;10.82;;;4.28;;
33162;SDS011;29282;45.656;11.302;2023-11-21T12:21:26;10.00;;;4.65;;
33162;SDS011;29282;45.656;11.302;2023-11-21T12:23:53;8.40;;;4.20;;
33162;SDS011;29282;45.656;11.302;2023-11-21T12:26:19;8.40;;;4.00;;
33162;SDS011;29282;45.656;11.302;2023-11-21T12:28:51;6.38;;;3.70;;
33162;SDS011;29282;45.656;11.302;2023-11-21T12:31:20;10.30;;;5.05;;
33162;SDS011;29282;45.656;11.302;2023-11-21T12:33:46;10.30;;;4.40;;
33162;SDS011;29282;45.656;11.302;2023-11-21T12:36:12;9.68;;;4.55;;
33162;SDS011;29282;45.656;11.302;2023-11-21T12:38:38;7.55;;;4.03;;
33162;SDS011;29282;45.656;11.302;2023-11-21T12:41:03;7.32;;;4.00;;
33162;SDS011;29282;45.656;11.302;2023-11-21T12:43:29;10.13;;;4.28;;
33162;SDS011;29282;45.656;11.302;2023-11-21T12:46:08;8.23;;;4.10;;
33162;SDS011;29282;45.656;11.302;2023-11-21T12:48:38;7.90;;;4.10;;
33162;SDS011;29282;45.656;11.302;2023-11-21T12:51:13;8.05;;;4.13;;
33162;SDS011;29282;45.656;11.302;2023-11-21T12:53:43;7.50;;;3.95;;
33162;SDS011;29282;45.656;11.302;2023-11-21T12:59:31;6.70;;;3.88;;
33162;SDS011;29282;45.656;11.302;2023-11-21T13:01:56;7.60;;;4.20;;
33162;SDS011;29282;45.656;11.302;2023-11-21T13:04:32;8.55;;;4.20;;
33162;SDS011;29282;45.656;11.302;2023-11-21T13:07:03;6.07;;;4.03;;
33162;SDS011;29282;45.656;11.302;2023-11-21T13:09:39;8.45;;;3.90;;
33162;SDS011;29282;45.656;11.302;2023-11-21T13:12:06;6.25;;;3.90;;
33162;SDS011;29282;45.656;11.302;2023-11-21T13:14:33;7.43;;;4.22;;
33162;SDS011;29282;45.656;11.302;2023-11-21T13:16:59;6.13;;;3.63;;
33162;SDS011;29282;45.656;11.302;2023-11-21T13:19:24;5.85;;;3.83;;
33162;SDS011;29282;45.656;11.302;2023-11-21T13:21:52;7.57;;;4.05;;
33162;SDS011;29282;45.656;11.302;2023-11-21T13:24:17;7.65;;;4.25;;
33162;SDS011;29282;45.656;11.302;2023-11-21T13:26:46;5.60;;;3.80;;
33162;SDS011;29282;45.656;11.302;2023-11-21T13:29:13;6.72;;;4.22;;
33162;SDS011;29282;45.656;11.302;2023-11-21T13:31:38;9.32;;;4.28;;
33162;SDS011;29282;45.656;11.302;2023-11-21T13:34:04;7.70;;;3.55;;
33162;SDS011;29282;45.656;11.302;2023-11-21T13:36:30;7.28;;;3.75;;
33162;SDS011;29282;45.656;11.302;2023-11-21T13:38:58;5.32;;;3.35;;
33162;SDS011;29282;45.656;11.302;2023-11-21T13:41:24;5.70;;;3.55;;
33162;SDS011;29282;45.656;11.302;2023-11-21T13:47:17;9.65;;;4.05;;
33162;SDS011;29282;45.656;11.302;2023-11-21T13:49:43;7.15;;;4.20;;
33162;SDS011;29282;45.656;11.302;2023-11-21T13:52:08;8.55;;;3.70;;
33162;SDS011;29282;45.656;11.302;2023-11-21T13:54:36;8.23;;;4.50;;
33162;SDS011;29282;45.656;11.302;2023-11-21T13:57:01;8.48;;;3.80;;
33162;SDS011;29282;45.656;11.302;2023-11-21T13:59:30;7.65;;;4.03;;
33162;SDS011;29282;45.656;11.302;2023-11-21T14:01:57;6.60;;;3.70;;
33162;SDS011;29282;45.656;11.302;2023-11-21T14:04:25;7.72;;;3.90;;
33162;SDS011;29282;45.656;11.302;2023-11-21T14:06:56;8.13;;;3.53;;
33162;SDS011;29282;45.656;11.302;2023-11-21T14:09:25;8.52;;;4.53;;
33162;SDS011;29282;45.656;11.302;2023-11-21T14:11:58;9.82;;;3.83;;
33162;SDS011;29282;45.656;11.302;2023-11-21T14:14:25;21.27;;;4.55;;
33162;SDS011;29282;45.656;11.302;2023-11-21T14:16:53;9.77;;;4.30;;
33162;SDS011;29282;45.656;11.302;2023-11-21T14:19:18;14.23;;;4.50;;
33162;SDS011;29282;45.656;11.302;2023-11-21T14:21:45;10.75;;;4.07;;
33162;SDS011;29282;45.656;11.302;2023-11-21T14:24:12;14.85;;;3.88;;
33162;SDS011;29282;45.656;11.302;2023-11-21T14:26:41;15.80;;;3.78;;
33162;SDS011;29282;45.656;11.302;2023-11-21T14:29:13;13.55;;;4.07;;
33162;SDS011;29282;45.656;11.302;2023-11-21T14:31:44;10.85;;;3.90;;
33162;SDS011;29282;45.656;11.302;2023-11-21T14:34:10;14.90;;;3.92;;
33162;SDS011;29282;45.656;11.302;2023-11-21T14:36:37;8.73;;;4.28;;
33162;SDS011;29282;45.656;11.302;2023-11-21T14:39:04;13.93;;;3.97;;
33162;SDS011;29282;45.656;11.302;2023-11-21T14:41:38;17.88;;;4.13;;
33162;SDS011;29282;45.656;11.302;2023-11-21T14:44:04;18.67;;;4.22;;
33162;SDS011;29282;45.656;11.302;2023-11-21T14:46:32;14.85;;;4.47;;
33162;SDS011;29282;45.656;11.302;2023-11-21T14:49:03;15.65;;;4.47;;
33162;SDS011;29282;45.656;11.302;2023-11-21T14:51:44;11.68;;;3.67;;
33162;SDS011;29282;45.656;11.302;2023-11-21T14:54:28;15.43;;;4.18;;
33162;SDS011;29282;45.656;11.302;2023-11-21T14:57:12;8.70;;;3.95;;
33162;SDS011;29282;45.656;11.302;2023-11-21T14:59:47;21.50;;;4.60;;